createdAt,value
2018-09-17T00:00:21.077Z,0.00
2018-09-17T00:01:20.998Z,0.00
2018-09-17T00:02:20.922Z,0.00
2018-09-17T00:03:20.899Z,0.00
2018-09-17T00:04:20.774Z,0.00
2018-09-17T00:05:20.700Z,0.00
2018-09-17T00:06:20.627Z,0.00
2018-09-17T00:07:20.553Z,0.00
2018-09-17T00:08:20.727Z,0.00
2018-09-17T00:09:20.405Z,0.00
2018-09-17T00:10:20.334Z,0.00
2018-09-17T00:11:20.257Z,0.00
2018-09-17T00:12:20.182Z,0.00
2018-09-17T00:13:20.110Z,0.00
2018-09-17T00:14:20.085Z,0.00
2018-09-17T00:15:19.962Z,0.00
2018-09-17T00:16:19.889Z,0.00
2018-09-17T00:17:19.814Z,0.00
2018-09-17T00:18:19.739Z,0.00
2018-09-17T00:19:19.669Z,0.00
2018-09-17T00:20:19.591Z,0.00
2018-09-17T00:21:19.518Z,0.00
2018-09-17T00:22:19.447Z,0.00
2018-09-17T00:23:19.371Z,0.00
2018-09-17T00:24:19.296Z,0.00
2018-09-17T00:25:19.222Z,0.00
2018-09-17T00:26:19.148Z,0.00
2018-09-17T00:27:19.075Z,0.00
2018-09-17T00:28:19.000Z,0.00
2018-09-17T00:29:18.927Z,0.00
2018-09-17T00:30:18.853Z,0.00
2018-09-17T00:31:18.783Z,0.00
2018-09-17T00:32:18.704Z,0.00
2018-09-17T00:33:18.629Z,0.00
2018-09-17T00:34:18.555Z,0.00
2018-09-17T00:35:18.480Z,0.00
2018-09-17T00:36:18.406Z,0.00
2018-09-17T00:37:18.334Z,0.00
2018-09-17T00:38:18.259Z,0.00
2018-09-17T00:39:18.184Z,0.00
2018-09-17T00:40:18.109Z,0.00
2018-09-17T00:41:18.035Z,0.00
2018-09-17T00:42:17.961Z,0.00
2018-09-17T00:43:17.888Z,0.00
2018-09-17T00:44:17.811Z,0.00
2018-09-17T00:45:17.737Z,0.00
2018-09-17T00:46:17.664Z,0.00
2018-09-17T00:47:17.589Z,0.00
2018-09-17T00:48:17.513Z,0.00
2018-09-17T00:49:17.439Z,0.00
2018-09-17T00:50:17.368Z,0.00
2018-09-17T00:51:17.290Z,0.00
2018-09-17T00:52:17.216Z,0.00
2018-09-17T00:53:17.143Z,0.00
2018-09-17T00:54:17.066Z,0.00
2018-09-17T00:55:16.992Z,0.00
2018-09-17T00:56:16.969Z,0.00
2018-09-17T00:57:16.842Z,0.00
2018-09-17T00:58:16.772Z,0.00
2018-09-17T00:59:16.694Z,0.00
2018-09-17T01:00:16.618Z,0.00
2018-09-17T01:01:16.544Z,0.00
2018-09-17T01:02:16.470Z,0.00
2018-09-17T01:03:16.397Z,0.00
2018-09-17T01:04:16.320Z,0.00
2018-09-17T01:05:16.246Z,0.00
2018-09-17T01:06:16.220Z,0.00
2018-09-17T01:07:16.097Z,0.00
2018-09-17T01:08:16.021Z,0.00
2018-09-17T01:09:15.951Z,0.00
2018-09-17T01:10:15.874Z,0.00
2018-09-17T01:11:15.798Z,0.00
2018-09-17T01:12:15.776Z,0.00
2018-09-17T01:13:15.648Z,0.00
2018-09-17T01:14:15.578Z,0.00
2018-09-17T01:15:15.499Z,0.00
2018-09-17T01:16:15.423Z,0.00
2018-09-17T01:17:15.400Z,0.00
2018-09-17T01:18:15.275Z,0.00
2018-09-17T01:19:15.201Z,0.00
2018-09-17T01:20:15.124Z,0.00
2018-09-17T01:21:15.051Z,0.00
2018-09-17T01:22:14.977Z,0.00
2018-09-17T01:23:14.903Z,0.00
2018-09-17T01:24:14.827Z,0.00
2018-09-17T01:25:14.753Z,0.00
2018-09-17T01:26:14.678Z,0.00
2018-09-17T01:27:14.604Z,0.00
2018-09-17T01:28:14.629Z,0.00
2018-09-17T01:29:14.456Z,0.00
2018-09-17T01:30:14.381Z,0.00
2018-09-17T01:31:14.305Z,0.00
2018-09-17T01:32:14.231Z,0.00
2018-09-17T01:33:14.407Z,0.00
2018-09-17T01:34:14.085Z,0.00
2018-09-17T01:35:14.007Z,0.00
2018-09-17T01:36:13.933Z,0.00
2018-09-17T01:37:13.857Z,0.00
2018-09-17T01:38:13.783Z,0.00
2018-09-17T01:39:13.708Z,0.00
2018-09-17T01:40:13.633Z,0.00
2018-09-17T01:41:13.558Z,0.00
2018-09-17T01:42:13.484Z,0.00
2018-09-17T01:43:13.460Z,0.00
2018-09-17T01:44:13.333Z,0.00
2018-09-17T01:45:13.260Z,0.00
2018-09-17T01:46:13.283Z,0.00
2018-09-17T01:47:13.110Z,0.00
2018-09-17T01:48:13.039Z,0.00
2018-09-17T01:49:12.960Z,0.00
2018-09-17T01:50:12.886Z,0.00
2018-09-17T01:51:12.811Z,0.00
2018-09-17T01:52:12.735Z,0.00
2018-09-17T01:53:12.665Z,0.00
2018-09-17T01:54:12.585Z,0.00
2018-09-17T01:55:12.513Z,0.00
2018-09-17T01:56:12.435Z,0.00
2018-09-17T01:57:12.359Z,0.00
2018-09-17T01:58:12.286Z,0.00
2018-09-17T01:59:12.212Z,0.00
2018-09-17T02:00:12.136Z,0.00
2018-09-17T02:01:12.063Z,0.00
2018-09-17T02:02:11.986Z,0.00
2018-09-17T02:03:11.912Z,0.00
2018-09-17T02:04:11.937Z,0.00
2018-09-17T02:05:11.762Z,0.00
2018-09-17T02:06:11.688Z,0.00
2018-09-17T02:07:11.612Z,0.00
2018-09-17T02:08:11.568Z,0.00
2018-09-17T02:09:11.541Z,0.00
2018-09-17T02:10:11.389Z,0.00
2018-09-17T02:11:11.317Z,0.00
2018-09-17T02:12:11.241Z,0.00
2018-09-17T02:13:11.164Z,0.00
2018-09-17T02:14:11.139Z,0.00
2018-09-17T02:15:11.014Z,0.00
2018-09-17T02:16:10.938Z,0.00
2018-09-17T02:17:10.864Z,0.00
2018-09-17T02:18:10.790Z,0.00
2018-09-17T02:19:10.716Z,0.00
2018-09-17T02:20:10.638Z,0.00
2018-09-17T02:21:10.564Z,0.00
2018-09-17T02:22:10.489Z,0.00
2018-09-17T02:23:10.414Z,0.00
2018-09-17T02:24:10.339Z,0.00
2018-09-17T02:25:10.268Z,0.00
2018-09-17T02:26:10.190Z,0.00
2018-09-17T02:27:10.114Z,0.00
2018-09-17T02:28:10.039Z,0.00
2018-09-17T02:29:09.965Z,0.00
2018-09-17T02:30:09.889Z,0.00
2018-09-17T02:31:09.814Z,0.00
2018-09-17T02:32:09.738Z,0.00
2018-09-17T02:33:09.663Z,0.00
2018-09-17T02:34:09.590Z,0.00
2018-09-17T02:35:09.513Z,0.00
2018-09-17T02:36:09.438Z,0.00
2018-09-17T02:37:09.363Z,0.00
2018-09-17T02:38:09.288Z,0.00
2018-09-17T02:39:09.212Z,0.00
2018-09-17T02:40:09.136Z,0.00
2018-09-17T02:41:09.061Z,0.00
2018-09-17T02:42:08.987Z,0.00
2018-09-17T02:43:08.911Z,0.00
2018-09-17T02:44:08.936Z,0.00
2018-09-17T02:45:08.761Z,0.00
2018-09-17T02:46:08.685Z,0.00
2018-09-17T02:47:08.610Z,0.00
2018-09-17T02:48:08.534Z,0.00
2018-09-17T02:49:08.761Z,0.00
2018-09-17T02:50:08.384Z,0.00
2018-09-17T02:51:08.310Z,0.00
2018-09-17T02:52:08.235Z,0.00
2018-09-17T02:53:08.160Z,0.00
2018-09-17T02:54:08.084Z,0.00
2018-09-17T02:55:08.009Z,0.00
2018-09-17T02:56:07.933Z,0.00
2018-09-17T02:57:07.857Z,0.00
2018-09-17T02:58:07.783Z,0.00
2018-09-17T02:59:07.707Z,0.00
2018-09-17T03:00:07.632Z,0.00
2018-09-17T03:01:07.557Z,0.00
2018-09-17T03:02:07.485Z,0.00
2018-09-17T03:03:07.408Z,0.00
2018-09-17T03:04:07.332Z,0.00
2018-09-17T03:05:07.257Z,0.00
2018-09-17T03:06:07.182Z,0.00
2018-09-17T03:07:07.106Z,0.00
2018-09-17T03:08:07.031Z,0.00
2018-09-17T03:09:06.956Z,0.00
2018-09-17T03:10:06.881Z,0.00
2018-09-17T03:11:06.807Z,0.00
2018-09-17T03:12:06.731Z,0.00
2018-09-17T03:13:06.657Z,0.00
2018-09-17T03:14:06.581Z,0.00
2018-09-17T03:15:06.504Z,0.00
2018-09-17T03:16:06.430Z,0.00
2018-09-17T03:17:06.355Z,0.00
2018-09-17T03:18:06.279Z,0.00
2018-09-17T03:19:06.204Z,0.00
2018-09-17T03:20:06.126Z,0.00
2018-09-17T03:21:06.054Z,0.00
2018-09-17T03:22:05.977Z,0.00
2018-09-17T03:23:05.902Z,0.00
2018-09-17T03:24:05.826Z,0.00
2018-09-17T03:25:05.752Z,0.00
2018-09-17T03:26:05.678Z,0.00
2018-09-17T03:27:05.601Z,0.00
2018-09-17T03:28:05.529Z,0.00
2018-09-17T03:29:05.449Z,0.00
2018-09-17T03:30:05.376Z,0.00
2018-09-17T03:31:05.306Z,0.00
2018-09-17T03:32:05.226Z,0.00
2018-09-17T03:33:05.147Z,0.00
2018-09-17T03:34:05.074Z,0.00
2018-09-17T03:35:05.047Z,0.00
2018-09-17T03:36:04.920Z,0.00
2018-09-17T03:37:04.846Z,0.00
2018-09-17T03:38:04.770Z,0.00
2018-09-17T03:39:04.694Z,0.00
2018-09-17T03:40:04.619Z,0.00
2018-09-17T03:41:04.693Z,0.00
2018-09-17T03:42:04.469Z,0.00
2018-09-17T03:43:04.392Z,0.00
2018-09-17T03:44:04.316Z,0.00
2018-09-17T03:45:04.247Z,0.00
2018-09-17T03:46:04.193Z,0.00
2018-09-17T03:47:04.090Z,0.00
2018-09-17T03:48:04.015Z,0.00
2018-09-17T03:49:03.939Z,0.00
2018-09-17T03:50:03.864Z,0.00
2018-09-17T03:51:03.790Z,0.00
2018-09-17T03:52:03.712Z,0.00
2018-09-17T03:53:03.638Z,0.00
2018-09-17T03:54:03.562Z,0.00
2018-09-17T03:55:03.487Z,0.00
2018-09-17T03:56:03.410Z,0.00
2018-09-17T03:57:03.336Z,0.00
2018-09-17T03:58:03.259Z,0.00
2018-09-17T03:59:03.185Z,0.00
2018-09-17T04:00:03.108Z,0.00
2018-09-17T04:01:03.033Z,0.00
2018-09-17T04:02:02.959Z,0.00
2018-09-17T04:03:02.883Z,0.00
2018-09-17T04:04:02.806Z,0.00
2018-09-17T04:05:02.730Z,0.00
2018-09-17T04:06:02.654Z,0.00
2018-09-17T04:07:02.579Z,0.00
2018-09-17T04:08:02.503Z,0.00
2018-09-17T04:09:02.428Z,0.00
2018-09-17T04:10:02.351Z,0.00
2018-09-17T04:11:02.277Z,0.00
2018-09-17T04:12:02.205Z,0.00
2018-09-17T04:13:02.126Z,0.00
2018-09-17T04:14:02.051Z,0.00
2018-09-17T04:15:01.976Z,0.00
2018-09-17T04:16:01.948Z,0.00
2018-09-17T04:17:01.823Z,0.00
2018-09-17T04:18:01.752Z,0.00
2018-09-17T04:19:01.671Z,0.00
2018-09-17T04:20:01.595Z,0.00
2018-09-17T04:21:01.523Z,0.00
2018-09-17T04:22:01.448Z,0.00
2018-09-17T04:23:01.369Z,0.00
2018-09-17T04:24:01.295Z,0.00
2018-09-17T04:25:01.217Z,0.00
2018-09-17T04:26:01.443Z,0.00
2018-09-17T04:27:01.068Z,0.00
2018-09-17T04:28:00.991Z,0.00
2018-09-17T04:29:00.916Z,0.00
2018-09-17T04:30:00.841Z,0.00
2018-09-17T04:31:00.767Z,0.00
2018-09-17T04:32:00.689Z,0.00
2018-09-17T04:33:00.634Z,0.00
2018-09-17T04:34:00.540Z,0.00
2018-09-17T04:35:00.464Z,0.00
2018-09-17T04:36:00.388Z,4.00
2018-09-17T04:37:00.313Z,4.00
2018-09-17T04:38:00.287Z,0.00
2018-09-17T04:39:00.163Z,4.00
2018-09-17T04:40:00.087Z,4.00
2018-09-17T04:41:00.011Z,4.00
2018-09-17T04:41:59.935Z,4.00
2018-09-17T04:42:59.861Z,4.00
2018-09-17T04:43:59.783Z,4.00
2018-09-17T04:44:59.710Z,8.00
2018-09-17T04:45:59.635Z,8.00
2018-09-17T04:46:59.557Z,12.00
2018-09-17T04:47:59.482Z,16.00
2018-09-17T04:48:59.407Z,16.00
2018-09-17T04:49:59.331Z,20.00
2018-09-17T04:50:59.256Z,24.00
2018-09-17T04:51:59.179Z,28.00
2018-09-17T04:52:59.105Z,32.00
2018-09-17T04:53:59.031Z,36.00
2018-09-17T04:54:58.954Z,44.00
2018-09-17T04:55:58.877Z,52.00
2018-09-17T04:56:58.801Z,56.00
2018-09-17T04:57:58.729Z,64.00
2018-09-17T04:58:58.651Z,72.00
2018-09-17T04:59:58.575Z,84.00
2018-09-17T05:00:58.502Z,96.00
2018-09-17T05:01:58.424Z,104.00
2018-09-17T05:02:58.348Z,112.00
2018-09-17T05:03:58.273Z,124.00
2018-09-17T05:04:58.196Z,136.00
2018-09-17T05:05:58.121Z,144.00
2018-09-17T05:06:58.049Z,156.00
2018-09-17T05:07:57.968Z,172.00
2018-09-17T05:08:57.893Z,184.00
2018-09-17T05:09:57.818Z,196.00
2018-09-17T05:10:57.742Z,208.00
2018-09-17T05:11:57.666Z,220.00
2018-09-17T05:12:57.662Z,236.00
2018-09-17T05:13:57.516Z,248.00
2018-09-17T05:14:57.440Z,264.00
2018-09-17T05:15:57.362Z,276.00
2018-09-17T05:16:57.287Z,292.00
2018-09-17T05:17:57.214Z,308.00
2018-09-17T05:18:57.137Z,324.00
2018-09-17T05:19:57.061Z,336.00
2018-09-17T05:20:56.985Z,356.00
2018-09-17T05:21:56.909Z,372.00
2018-09-17T05:22:56.833Z,388.00
2018-09-17T05:23:56.757Z,400.00
2018-09-17T05:24:56.684Z,412.00
2018-09-17T05:25:56.606Z,428.00
2018-09-17T05:26:56.544Z,444.00
2018-09-17T05:27:56.457Z,456.00
2018-09-17T05:28:56.380Z,476.00
2018-09-17T05:29:56.304Z,492.00
2018-09-17T05:30:56.231Z,508.00
2018-09-17T05:31:56.153Z,524.00
2018-09-17T05:32:56.077Z,540.00
2018-09-17T05:33:56.003Z,556.00
2018-09-17T05:34:55.942Z,568.00
2018-09-17T05:35:55.852Z,584.00
2018-09-17T05:36:55.780Z,600.00
2018-09-17T05:37:55.704Z,616.00
2018-09-17T05:38:55.627Z,632.00
2018-09-17T05:39:55.550Z,644.00
2018-09-17T05:40:55.477Z,664.00
2018-09-17T05:41:55.400Z,680.00
2018-09-17T05:42:55.324Z,688.00
2018-09-17T05:43:55.251Z,704.00
2018-09-17T05:44:55.174Z,720.00
2018-09-17T05:45:55.099Z,736.00
2018-09-17T05:46:55.023Z,748.00
2018-09-17T05:47:54.950Z,764.00
2018-09-17T05:48:54.872Z,784.00
2018-09-17T05:49:54.797Z,804.00
2018-09-17T05:50:54.723Z,820.00
2018-09-17T05:51:54.646Z,836.00
2018-09-17T05:52:54.571Z,856.00
2018-09-17T05:53:54.710Z,872.00
2018-09-17T05:54:54.419Z,892.00
2018-09-17T05:55:54.344Z,904.00
2018-09-17T05:56:54.267Z,916.00
2018-09-17T05:57:54.198Z,932.00
2018-09-17T05:58:54.118Z,944.00
2018-09-17T05:59:54.043Z,956.00
2018-09-17T06:00:53.967Z,968.00
2018-09-17T06:01:53.890Z,984.00
2018-09-17T06:02:53.815Z,1000.00
2018-09-17T06:03:53.740Z,1008.00
2018-09-17T06:04:53.665Z,1024.00
2018-09-17T06:05:53.628Z,1040.00
2018-09-17T06:06:53.540Z,1056.00
2018-09-17T06:07:53.438Z,1072.00
2018-09-17T06:08:53.362Z,1088.00
2018-09-17T06:09:53.365Z,1104.00
2018-09-17T06:10:53.212Z,1112.00
2018-09-17T06:11:53.204Z,1124.00
2018-09-17T06:12:53.062Z,1136.00
2018-09-17T06:13:52.984Z,1144.00
2018-09-17T06:14:52.911Z,1156.00
2018-09-17T06:15:52.834Z,1164.00
2018-09-17T06:16:52.759Z,1168.00
2018-09-17T06:17:52.685Z,1180.00
2018-09-17T06:18:52.608Z,1188.00
2018-09-17T06:19:52.532Z,1196.00
2018-09-17T06:20:52.457Z,1200.00
2018-09-17T06:21:52.382Z,1212.00
2018-09-17T06:22:52.307Z,1220.00
2018-09-17T06:23:52.282Z,1228.00
2018-09-17T06:24:52.156Z,1236.00
2018-09-17T06:25:52.081Z,1240.00
2018-09-17T06:26:52.009Z,1248.00
2018-09-17T06:27:51.933Z,1252.00
2018-09-17T06:28:51.878Z,1256.00
2018-09-17T06:29:51.779Z,1260.00
2018-09-17T06:30:51.707Z,1264.00
2018-09-17T06:31:51.633Z,1268.00
2018-09-17T06:32:51.557Z,1272.00
2018-09-17T06:33:51.481Z,1276.00
2018-09-17T06:34:51.407Z,1284.00
2018-09-17T06:35:51.331Z,1288.00
2018-09-17T06:36:51.257Z,1296.00
2018-09-17T06:37:51.182Z,1300.00
2018-09-17T06:38:51.114Z,1304.00
2018-09-17T06:39:51.031Z,1312.00
2018-09-17T06:40:50.960Z,1316.00
2018-09-17T06:41:50.881Z,1320.00
2018-09-17T06:42:50.806Z,1328.00
2018-09-17T06:43:50.733Z,1332.00
2018-09-17T06:44:50.689Z,1340.00
2018-09-17T06:45:50.583Z,1344.00
2018-09-17T06:46:50.509Z,1348.00
2018-09-17T06:47:50.433Z,1356.00
2018-09-17T06:48:50.363Z,1360.00
2018-09-17T06:49:50.384Z,1368.00
2018-09-17T06:50:50.211Z,1372.00
2018-09-17T06:51:50.138Z,1376.00
2018-09-17T06:52:50.060Z,1380.00
2018-09-17T06:53:50.022Z,1384.00
2018-09-17T06:54:49.912Z,1388.00
2018-09-17T06:55:49.837Z,1396.00
2018-09-17T06:56:49.763Z,1400.00
2018-09-17T06:57:49.689Z,1408.00
2018-09-17T06:58:49.614Z,1412.00
2018-09-17T06:59:49.540Z,1416.00
2018-09-17T07:00:49.517Z,1420.00
2018-09-17T07:01:49.392Z,1428.00
2018-09-17T07:02:49.318Z,1432.00
2018-09-17T07:03:49.244Z,1436.00
2018-09-17T07:04:49.170Z,1440.00
2018-09-17T07:05:49.098Z,1444.00
2018-09-17T07:06:49.025Z,1452.00
2018-09-17T07:07:48.949Z,1456.00
2018-09-17T07:08:48.877Z,1460.00
2018-09-17T07:09:48.804Z,1460.00
2018-09-17T07:10:48.731Z,1468.00
2018-09-17T07:11:48.656Z,1472.00
2018-09-17T07:12:48.584Z,1476.00
2018-09-17T07:13:48.508Z,1480.00
2018-09-17T07:14:48.436Z,1488.00
2018-09-17T07:15:48.464Z,1488.00
2018-09-17T07:16:48.292Z,1496.00
2018-09-17T07:17:48.214Z,1500.00
2018-09-17T07:18:48.142Z,1512.00
2018-09-17T07:19:48.068Z,1516.00
2018-09-17T07:20:47.996Z,1524.00
2018-09-17T07:21:47.922Z,1528.00
2018-09-17T07:22:47.851Z,1536.00
2018-09-17T07:23:47.775Z,1548.00
2018-09-17T07:24:47.703Z,1552.00
2018-09-17T07:25:47.630Z,1560.00
2018-09-17T07:26:47.808Z,1572.00
2018-09-17T07:27:47.485Z,1580.00
2018-09-17T07:28:47.411Z,1588.00
2018-09-17T07:29:47.339Z,1596.00
2018-09-17T07:30:47.265Z,1608.00
2018-09-17T07:31:47.190Z,1616.00
2018-09-17T07:32:47.125Z,1628.00
2018-09-17T07:33:47.046Z,1636.00
2018-09-17T07:34:46.974Z,1644.00
2018-09-17T07:35:46.907Z,1660.00
2018-09-17T07:36:46.828Z,1672.00
2018-09-17T07:37:46.756Z,1684.00
2018-09-17T07:38:46.683Z,1696.00
2018-09-17T07:39:46.613Z,1712.00
2018-09-17T07:40:46.541Z,1724.00
2018-09-17T07:41:46.464Z,1736.00
2018-09-17T07:42:46.394Z,1748.00
2018-09-17T07:43:46.320Z,1764.00
2018-09-17T07:44:46.249Z,1780.00
2018-09-17T07:45:46.178Z,1796.00
2018-09-17T07:46:46.105Z,1812.00
2018-09-17T07:47:46.060Z,1828.00
2018-09-17T07:48:45.961Z,1844.00
2018-09-17T07:49:45.889Z,1872.00
2018-09-17T07:50:45.816Z,1888.00
2018-09-17T07:51:45.744Z,1916.00
2018-09-17T07:52:45.682Z,1936.00
2018-09-17T07:53:45.601Z,1960.00
2018-09-17T07:54:45.530Z,1980.00
2018-09-17T07:55:45.456Z,2008.00
2018-09-17T07:56:45.386Z,2028.00
2018-09-17T07:57:45.314Z,2056.00
2018-09-17T07:58:45.248Z,2080.00
2018-09-17T07:59:45.171Z,2104.00
2018-09-17T08:00:45.100Z,2124.00
2018-09-17T08:01:45.029Z,2144.00
2018-09-17T08:02:44.957Z,2164.00
2018-09-17T08:03:44.887Z,2184.00
2018-09-17T08:04:44.813Z,2200.00
2018-09-17T08:05:44.759Z,2220.00
2018-09-17T08:06:44.672Z,2232.00
2018-09-17T08:07:44.601Z,2252.00
2018-09-17T08:08:44.529Z,2264.00
2018-09-17T08:09:44.459Z,2280.00
2018-09-17T08:10:44.388Z,2300.00
2018-09-17T08:11:44.316Z,2316.00
2018-09-17T08:12:44.247Z,2332.00
2018-09-17T08:13:44.275Z,2344.00
2018-09-17T08:14:44.105Z,2360.00
2018-09-17T08:15:44.032Z,2376.00
2018-09-17T08:16:43.961Z,2388.00
2018-09-17T08:17:43.892Z,2404.00
2018-09-17T08:18:43.820Z,2408.00
2018-09-17T08:19:43.849Z,2416.00
2018-09-17T08:20:43.680Z,2428.00
2018-09-17T08:21:43.609Z,2432.00
2018-09-17T08:22:43.537Z,2440.00
2018-09-17T08:23:43.467Z,2456.00
2018-09-17T08:24:43.398Z,2476.00
2018-09-17T08:25:43.326Z,2492.00
2018-09-17T08:26:43.256Z,2500.00
2018-09-17T08:27:43.185Z,2524.00
2018-09-17T08:28:43.114Z,2540.00
2018-09-17T08:29:43.045Z,2548.00
2018-09-17T08:30:42.974Z,2568.00
2018-09-17T08:31:42.903Z,2584.00
2018-09-17T08:32:42.833Z,2596.00
2018-09-17T08:33:42.764Z,2612.00
2018-09-17T08:34:42.693Z,2620.00
2018-09-17T08:35:42.621Z,2624.00
2018-09-17T08:36:42.551Z,2624.00
2018-09-17T08:37:42.483Z,2624.00
2018-09-17T08:38:42.410Z,2632.00
2018-09-17T08:39:42.342Z,2644.00
2018-09-17T08:40:42.270Z,2648.00
2018-09-17T08:41:42.201Z,2664.00
2018-09-17T08:42:42.129Z,2672.00
2018-09-17T08:43:42.059Z,2680.00
2018-09-17T08:44:41.990Z,2692.00
2018-09-17T08:45:41.950Z,2700.00
2018-09-17T08:46:41.851Z,2716.00
2018-09-17T08:47:41.787Z,2716.00
2018-09-17T08:48:41.712Z,2720.00
2018-09-17T08:49:41.641Z,2740.00
2018-09-17T08:50:41.622Z,2760.00
2018-09-17T08:51:41.504Z,2772.00
2018-09-17T08:52:41.455Z,2796.00
2018-09-17T08:53:41.367Z,2824.00
2018-09-17T08:54:41.293Z,2860.00
2018-09-17T08:55:41.226Z,2880.00
2018-09-17T08:56:41.154Z,2920.00
2018-09-17T08:57:41.084Z,2948.00
2018-09-17T08:58:41.015Z,2976.00
2018-09-17T08:59:40.945Z,3012.00
2018-09-17T09:00:40.875Z,3032.00
2018-09-17T09:01:40.807Z,3080.00
2018-09-17T09:02:40.741Z,3088.00
2018-09-17T09:03:40.667Z,3116.00
2018-09-17T09:04:40.599Z,3132.00
2018-09-17T09:05:40.539Z,3156.00
2018-09-17T09:06:40.560Z,3172.00
2018-09-17T09:07:40.391Z,3192.00
2018-09-17T09:08:40.322Z,3200.00
2018-09-17T09:09:40.252Z,3192.00
2018-09-17T09:10:40.184Z,3184.00
2018-09-17T09:11:40.114Z,3152.00
2018-09-17T09:12:40.045Z,3156.00
2018-09-17T09:13:39.976Z,3168.00
2018-09-17T09:14:39.908Z,3220.00
2018-09-17T09:15:39.837Z,3304.00
2018-09-17T09:16:39.769Z,3336.00
2018-09-17T09:17:39.701Z,3344.00
2018-09-17T09:18:39.635Z,3432.00
2018-09-17T09:19:39.584Z,3432.00
2018-09-17T09:20:39.493Z,3476.00
2018-09-17T09:21:39.427Z,3528.00
2018-09-17T09:22:39.410Z,3568.00
2018-09-17T09:23:39.290Z,3596.00
2018-09-17T09:24:39.217Z,3684.00
2018-09-17T09:25:39.155Z,3624.00
2018-09-17T09:26:39.080Z,3608.00
2018-09-17T09:27:39.010Z,3576.00
2018-09-17T09:28:38.945Z,3560.00
2018-09-17T09:29:38.873Z,3560.00
2018-09-17T09:30:38.804Z,3520.00
2018-09-17T09:31:38.735Z,3492.00
2018-09-17T09:32:38.665Z,3540.00
2018-09-17T09:33:38.598Z,3524.00
2018-09-17T09:34:38.529Z,3536.00
2018-09-17T09:35:38.458Z,3432.00
2018-09-17T09:36:38.389Z,3444.00
2018-09-17T09:37:38.321Z,3508.00
2018-09-17T09:38:38.253Z,3564.00
2018-09-17T09:39:38.183Z,3556.00
2018-09-17T09:40:38.116Z,3584.00
2018-09-17T09:41:38.048Z,3700.00
2018-09-17T09:42:37.978Z,3652.00
2018-09-17T09:43:37.907Z,3716.00
2018-09-17T09:44:37.840Z,3676.00
2018-09-17T09:45:37.771Z,3672.00
2018-09-17T09:46:37.703Z,3696.00
2018-09-17T09:47:37.633Z,3840.00
2018-09-17T09:48:37.566Z,3772.00
2018-09-17T09:49:37.496Z,3728.00
2018-09-17T09:50:37.428Z,3660.00
2018-09-17T09:51:37.359Z,3672.00
2018-09-17T09:52:37.302Z,3716.00
2018-09-17T09:53:37.221Z,3732.00
2018-09-17T09:54:37.153Z,3760.00
2018-09-17T09:55:37.084Z,3776.00
2018-09-17T09:56:37.015Z,3820.00
2018-09-17T09:57:36.945Z,3836.00
2018-09-17T09:58:36.880Z,3868.00
2018-09-17T09:59:36.839Z,3924.00
2018-09-17T10:00:36.791Z,3936.00
2018-09-17T10:01:36.675Z,4020.00
2018-09-17T10:02:36.603Z,4028.00
2018-09-17T10:03:36.534Z,4016.00
2018-09-17T10:04:36.465Z,4036.00
2018-09-17T10:05:36.397Z,3992.00
2018-09-17T10:06:36.329Z,4392.00
2018-09-17T10:07:36.259Z,6224.00
2018-09-17T10:08:36.191Z,6044.00
2018-09-17T10:09:36.127Z,5172.00
2018-09-17T10:10:36.054Z,4524.00
2018-09-17T10:12:33.486Z,4408.00
2018-09-17T10:13:33.417Z,4380.00
2018-09-17T10:14:33.349Z,4424.00
2018-09-17T10:15:33.280Z,4484.00
2018-09-17T10:16:33.213Z,4608.00
2018-09-17T10:17:33.143Z,4644.00
2018-09-17T10:18:33.074Z,4628.00
2018-09-17T10:19:33.008Z,4624.00
2018-09-17T10:20:32.937Z,4612.00
2018-09-17T10:21:32.870Z,4504.00
2018-09-17T10:22:32.803Z,4432.00
2018-09-17T10:23:32.734Z,4456.00
2018-09-17T10:24:32.664Z,4416.00
2018-09-17T10:25:32.596Z,4392.00
2018-09-17T10:26:32.928Z,4436.00
2018-09-17T10:27:32.463Z,4372.00
2018-09-17T10:28:32.390Z,4388.00
2018-09-17T10:29:32.324Z,4356.00
2018-09-17T10:30:32.253Z,4356.00
2018-09-17T10:31:32.185Z,4412.00
2018-09-17T10:32:32.118Z,4468.00
2018-09-17T10:33:32.050Z,4964.00
2018-09-17T10:34:31.983Z,5524.00
2018-09-17T10:35:31.915Z,5188.00
2018-09-17T10:36:31.845Z,5428.00
2018-09-17T10:37:31.877Z,4792.00
2018-09-17T10:38:31.708Z,6460.00
2018-09-17T10:39:31.671Z,4736.00
2018-09-17T10:40:31.573Z,4912.00
2018-09-17T10:41:31.505Z,5780.00
2018-09-17T10:42:31.487Z,4316.00
2018-09-17T10:43:31.370Z,5064.00
2018-09-17T10:44:31.301Z,4352.00
2018-09-17T10:45:31.233Z,5316.00
2018-09-17T10:46:31.166Z,5248.00
2018-09-17T10:47:31.098Z,5100.00
2018-09-17T10:48:31.080Z,4736.00
2018-09-17T10:49:30.962Z,5012.00
2018-09-17T10:50:30.894Z,6532.00
2018-09-17T10:51:30.826Z,4396.00
2018-09-17T10:52:30.758Z,9760.00
2018-09-17T10:53:30.691Z,8796.00
2018-09-17T10:54:30.621Z,14408.00
2018-09-17T10:55:30.555Z,11092.00
2018-09-17T10:56:30.488Z,4560.00
2018-09-17T10:57:30.420Z,8280.00
2018-09-17T10:58:30.351Z,6468.00
2018-09-17T10:59:30.283Z,4932.00
2018-09-17T11:00:30.217Z,5112.00
2018-09-17T11:01:30.150Z,4828.00
2018-09-17T11:02:30.081Z,8884.00
2018-09-17T11:03:30.013Z,14360.00
2018-09-17T11:04:29.946Z,9068.00
2018-09-17T11:05:29.879Z,12180.00
2018-09-17T11:06:29.811Z,6756.00
2018-09-17T11:07:29.744Z,9540.00
2018-09-17T11:08:29.676Z,4592.00
2018-09-17T11:09:29.610Z,6608.00
2018-09-17T11:10:29.544Z,6656.00
2018-09-17T11:11:29.475Z,5752.00
2018-09-17T11:12:29.426Z,5360.00
2018-09-17T11:13:29.344Z,5400.00
2018-09-17T11:14:29.274Z,12036.00
2018-09-17T11:15:29.207Z,15960.00
2018-09-17T11:16:29.140Z,30272.00
2018-09-17T11:17:29.184Z,20896.00
2018-09-17T11:18:29.013Z,24448.00
2018-09-17T11:19:28.990Z,25952.00
2018-09-17T11:20:28.874Z,14992.00
2018-09-17T11:21:28.810Z,31296.00
2018-09-17T11:22:28.745Z,42880.00
2018-09-17T11:23:28.675Z,29952.00
2018-09-17T11:24:28.658Z,16192.00
2018-09-17T11:25:28.543Z,11800.00
2018-09-17T11:26:28.475Z,66688.00
2018-09-17T11:27:28.411Z,33824.00
2018-09-17T11:28:28.344Z,51488.00
2018-09-17T11:29:28.378Z,66656.00
2018-09-17T11:30:28.214Z,60928.00
2018-09-17T11:31:28.184Z,67840.00
2018-09-17T11:32:28.083Z,29312.00
2018-09-17T11:33:28.019Z,27264.00
2018-09-17T11:34:28.005Z,70336.00
2018-09-17T11:35:27.891Z,57920.00
2018-09-17T11:36:27.827Z,83392.00
2018-09-17T11:37:27.763Z,81280.00
2018-09-17T11:38:27.698Z,78752.00
2018-09-17T11:39:27.636Z,76096.00
2018-09-17T11:40:27.623Z,73440.00
2018-09-17T11:41:27.508Z,69888.00
2018-09-17T11:42:27.444Z,68736.00
2018-09-17T11:43:27.380Z,73984.00
2018-09-17T11:44:29.937Z,76608.00
2018-09-17T11:45:27.254Z,77504.00
2018-09-17T11:46:27.190Z,73824.00
2018-09-17T11:47:27.127Z,66400.00
2018-09-17T11:48:27.098Z,74944.00
2018-09-17T11:49:27.004Z,71328.00
2018-09-17T11:50:26.940Z,72480.00
2018-09-17T11:51:26.884Z,69696.00
2018-09-17T11:52:26.822Z,69312.00
2018-09-17T11:53:26.759Z,71200.00
2018-09-17T11:54:26.697Z,71680.00
2018-09-17T11:55:26.736Z,74560.00
2018-09-17T11:56:26.577Z,75808.00
2018-09-17T11:57:26.516Z,73568.00
2018-09-17T11:58:26.456Z,72736.00
2018-09-17T11:59:26.396Z,76192.00
2018-09-17T12:03:26.214Z,73856.00
2018-09-17T12:04:26.127Z,69632.00
2018-09-17T12:05:26.043Z,75776.00
2018-09-17T12:06:26.210Z,71584.00
2018-09-17T12:07:25.973Z,71520.00
2018-09-17T12:08:25.865Z,71392.00
2018-09-17T12:15:26.092Z,73536.00
2018-09-17T12:16:25.629Z,76096.00
2018-09-17T12:17:25.567Z,73344.00
2018-09-17T12:18:25.913Z,72768.00
2018-09-17T12:19:25.230Z,74688.00
2018-09-17T12:20:25.193Z,70688.00
2018-09-17T12:21:25.108Z,73312.00
2018-09-17T12:22:25.381Z,76704.00
2018-09-17T12:23:24.992Z,80672.00
2018-09-17T12:24:24.936Z,81472.00
2018-09-17T12:25:24.877Z,81440.00
2018-09-17T12:26:24.818Z,84128.00
2018-09-17T12:27:24.761Z,84288.00
2018-09-17T12:28:24.705Z,81568.00
2018-09-17T12:30:12.402Z,80928.00
2018-09-17T12:31:12.098Z,77088.00
2018-09-17T12:32:13.451Z,82304.00
2018-09-17T12:33:11.978Z,84032.00
2018-09-17T12:34:11.924Z,85056.00
2018-09-17T12:35:11.864Z,84576.00
2018-09-17T12:36:11.808Z,79392.00
2018-09-17T12:37:11.750Z,74848.00
2018-09-17T12:38:11.694Z,73952.00
2018-09-17T12:39:11.640Z,69472.00
2018-09-17T12:40:11.580Z,55616.00
2018-09-17T12:41:11.525Z,47264.00
2018-09-17T12:42:11.470Z,45888.00